sensor_id;sensor_type;location;lat;lon;timestamp;temperature;humidity
18268;DHT22;9260;49.998;19.880;2024-02-26T00:06:11;3.40;1.00
18268;DHT22;9260;49.998;19.880;2024-02-26T00:16:16;3.40;1.00
18268;DHT22;9260;49.998;19.880;2024-02-26T00:26:19;2.90;1.00
18268;DHT22;9260;49.998;19.880;2024-02-26T00:36:24;2.90;1.00
18268;DHT22;9260;49.998;19.880;2024-02-26T00:46:27;2.30;1.00
18268;DHT22;9260;49.998;19.880;2024-02-26T00:56:32;2.10;1.00
18268;DHT22;9260;49.998;19.880;2024-02-26T01:06:35;1.00;1.00
18268;DHT22;9260;49.998;19.880;2024-02-26T01:16:39;0.80;1.00
18268;DHT22;9260;49.998;19.880;2024-02-26T01:26:43;0.70;1.00
18268;DHT22;9260;49.998;19.880;2024-02-26T01:36:47;0.40;1.00
18268;DHT22;9260;49.998;19.880;2024-02-26T01:46:51;0.00;1.00
18268;DHT22;9260;49.998;19.880;2024-02-26T01:56:56;0.50;1.00
18268;DHT22;9260;49.998;19.880;2024-02-26T02:07:00;0.20;1.00
18268;DHT22;9260;49.998;19.880;2024-02-26T02:17:04;0.50;1.00
18268;DHT22;9260;49.998;19.880;2024-02-26T02:27:09;0.40;1.00
18268;DHT22;9260;49.998;19.880;2024-02-26T02:37:12;0.20;1.00
18268;DHT22;9260;49.998;19.880;2024-02-26T02:47:17;0.20;1.00
18268;DHT22;9260;49.998;19.880;2024-02-26T02:57:20;-0.10;1.00
18268;DHT22;9260;49.998;19.880;2024-02-26T03:07:25;-0.30;1.00
18268;DHT22;9260;49.998;19.880;2024-02-26T03:17:28;-0.50;1.00
18268;DHT22;9260;49.998;19.880;2024-02-26T03:27:33;0.00;1.00
18268;DHT22;9260;49.998;19.880;2024-02-26T03:37:36;-0.90;1.00
18268;DHT22;9260;49.998;19.880;2024-02-26T03:47:41;-1.10;1.00
18268;DHT22;9260;49.998;19.880;2024-02-26T03:57:44;-0.30;1.00
18268;DHT22;9260;49.998;19.880;2024-02-26T04:07:49;-1.40;1.00
18268;DHT22;9260;49.998;19.880;2024-02-26T04:17:52;-1.70;1.00
18268;DHT22;9260;49.998;19.880;2024-02-26T04:27:58;-1.50;1.00
18268;DHT22;9260;49.998;19.880;2024-02-26T04:38:01;-1.60;1.00
18268;DHT22;9260;49.998;19.880;2024-02-26T04:48:06;-1.50;1.00
18268;DHT22;9260;49.998;19.880;2024-02-26T04:58:10;-1.40;1.00
18268;DHT22;9260;49.998;19.880;2024-02-26T05:08:14;-0.90;1.00
18268;DHT22;9260;49.998;19.880;2024-02-26T05:18:18;-1.50;1.00
18268;DHT22;9260;49.998;19.880;2024-02-26T05:28:23;-1.60;1.00
18268;DHT22;9260;49.998;19.880;2024-02-26T05:38:26;-1.90;1.00
18268;DHT22;9260;49.998;19.880;2024-02-26T05:48:30;-1.40;1.00
18268;DHT22;9260;49.998;19.880;2024-02-26T05:58:34;-1.60;1.00
18268;DHT22;9260;49.998;19.880;2024-02-26T06:08:39;-0.60;1.00
18268;DHT22;9260;49.998;19.880;2024-02-26T06:18:42;-1.00;1.00
18268;DHT22;9260;49.998;19.880;2024-02-26T06:28:47;1.00;1.00
18268;DHT22;9260;49.998;19.880;2024-02-26T06:38:51;0.90;1.00
18268;DHT22;9260;49.998;19.880;2024-02-26T06:48:57;1.40;1.00
18268;DHT22;9260;49.998;19.880;2024-02-26T06:59:01;0.90;1.00
18268;DHT22;9260;49.998;19.880;2024-02-26T07:09:06;2.30;1.00
18268;DHT22;9260;49.998;19.880;2024-02-26T07:19:09;4.00;1.00
18268;DHT22;9260;49.998;19.880;2024-02-26T07:29:15;6.60;1.00
18268;DHT22;9260;49.998;19.880;2024-02-26T07:39:19;6.60;1.00
18268;DHT22;9260;49.998;19.880;2024-02-26T07:49:23;6.30;1.00
18268;DHT22;9260;49.998;19.880;2024-02-26T07:59:27;6.20;1.00
18268;DHT22;9260;49.998;19.880;2024-02-26T08:09:31;6.10;1.00
18268;DHT22;9260;49.998;19.880;2024-02-26T08:19:35;6.70;1.00
18268;DHT22;9260;49.998;19.880;2024-02-26T08:29:40;7.20;1.00
18268;DHT22;9260;49.998;19.880;2024-02-26T08:39:43;8.60;1.00
18268;DHT22;9260;49.998;19.880;2024-02-26T08:49:49;9.60;1.00
18268;DHT22;9260;49.998;19.880;2024-02-26T08:59:52;12.00;1.00
18268;DHT22;9260;49.998;19.880;2024-02-26T09:09:57;16.50;1.00
18268;DHT22;9260;49.998;19.880;2024-02-26T09:20:01;18.20;1.00
18268;DHT22;9260;49.998;19.880;2024-02-26T09:30:07;21.70;1.00
18268;DHT22;9260;49.998;19.880;2024-02-26T09:40:11;20.10;1.00
18268;DHT22;9260;49.998;19.880;2024-02-26T09:50:17;15.90;1.00
18268;DHT22;9260;49.998;19.880;2024-02-26T10:00:25;17.30;1.00
18268;DHT22;9260;49.998;19.880;2024-02-26T10:10:33;19.00;1.00
18268;DHT22;9260;49.998;19.880;2024-02-26T10:20:36;20.30;1.00
18268;DHT22;9260;49.998;19.880;2024-02-26T10:30:41;20.00;1.00
18268;DHT22;9260;49.998;19.880;2024-02-26T10:40:45;21.50;1.00
18268;DHT22;9260;49.998;19.880;2024-02-26T10:50:49;29.70;1.00
18268;DHT22;9260;49.998;19.880;2024-02-26T11:00:54;35.30;1.00
18268;DHT22;9260;49.998;19.880;2024-02-26T11:11:01;36.40;1.00
18268;DHT22;9260;49.998;19.880;2024-02-26T11:21:04;28.20;1.00
18268;DHT22;9260;49.998;19.880;2024-02-26T11:31:11;26.40;1.00
18268;DHT22;9260;49.998;19.880;2024-02-26T11:41:15;22.70;1.00
18268;DHT22;9260;49.998;19.880;2024-02-26T11:51:24;21.70;1.00
18268;DHT22;9260;49.998;19.880;2024-02-26T12:01:44;21.00;1.00
18268;DHT22;9260;49.998;19.880;2024-02-26T12:11:51;20.80;1.00
18268;DHT22;9260;49.998;19.880;2024-02-26T12:21:54;19.40;1.00
18268;DHT22;9260;49.998;19.880;2024-02-26T12:31:59;22.90;1.00
18268;DHT22;9260;49.998;19.880;2024-02-26T12:42:06;19.20;1.00
18268;DHT22;9260;49.998;19.880;2024-02-26T12:52:11;22.80;1.00
18268;DHT22;9260;49.998;19.880;2024-02-26T13:02:16;19.60;1.00
18268;DHT22;9260;49.998;19.880;2024-02-26T13:12:21;17.70;1.00
18268;DHT22;9260;49.998;19.880;2024-02-26T13:22:25;16.70;1.00
18268;DHT22;9260;49.998;19.880;2024-02-26T13:32:30;15.60;1.00
18268;DHT22;9260;49.998;19.880;2024-02-26T13:42:35;15.00;1.00
18268;DHT22;9260;49.998;19.880;2024-02-26T13:52:40;14.60;1.00
18268;DHT22;9260;49.998;19.880;2024-02-26T14:02:44;13.90;1.00
18268;DHT22;9260;49.998;19.880;2024-02-26T14:12:49;14.20;1.00
18268;DHT22;9260;49.998;19.880;2024-02-26T14:22:52;15.10;1.00
18268;DHT22;9260;49.998;19.880;2024-02-26T14:32:57;15.30;1.00
18268;DHT22;9260;49.998;19.880;2024-02-26T14:43:00;15.50;1.00
18268;DHT22;9260;49.998;19.880;2024-02-26T14:53:07;15.60;1.00
18268;DHT22;9260;49.998;19.880;2024-02-26T15:03:10;15.30;1.00
18268;DHT22;9260;49.998;19.880;2024-02-26T15:13:15;14.40;1.00
18268;DHT22;9260;49.998;19.880;2024-02-26T15:23:20;14.00;1.00
18268;DHT22;9260;49.998;19.880;2024-02-26T15:33:24;13.50;1.00
18268;DHT22;9260;49.998;19.880;2024-02-26T15:43:28;12.90;1.00
18268;DHT22;9260;49.998;19.880;2024-02-26T15:53:32;12.20;1.00
18268;DHT22;9260;49.998;19.880;2024-02-26T16:03:36;11.60;1.00
18268;DHT22;9260;49.998;19.880;2024-02-26T16:13:42;10.00;1.00
18268;DHT22;9260;49.998;19.880;2024-02-26T16:23:45;9.80;1.00
18268;DHT22;9260;49.998;19.880;2024-02-26T16:33:50;9.00;1.00
18268;DHT22;9260;49.998;19.880;2024-02-26T16:43:54;8.40;1.00
18268;DHT22;9260;49.998;19.880;2024-02-26T16:53:59;8.20;1.00
18268;DHT22;9260;49.998;19.880;2024-02-26T17:04:05;7.90;1.00
18268;DHT22;9260;49.998;19.880;2024-02-26T17:14:10;7.20;1.00
18268;DHT22;9260;49.998;19.880;2024-02-26T17:24:14;7.10;1.00
18268;DHT22;9260;49.998;19.880;2024-02-26T17:34:18;7.20;1.00
18268;DHT22;9260;49.998;19.880;2024-02-26T17:44:22;7.00;1.00
18268;DHT22;9260;49.998;19.880;2024-02-26T17:54:29;6.60;1.00
18268;DHT22;9260;49.998;19.880;2024-02-26T18:04:32;6.80;1.00
18268;DHT22;9260;49.998;19.880;2024-02-26T18:14:38;6.30;1.00
18268;DHT22;9260;49.998;19.880;2024-02-26T18:24:41;6.10;1.00
18268;DHT22;9260;49.998;19.880;2024-02-26T18:34:45;6.10;1.00
18268;DHT22;9260;49.998;19.880;2024-02-26T18:44:49;5.80;1.00
18268;DHT22;9260;49.998;19.880;2024-02-26T18:54:54;5.60;1.00
18268;DHT22;9260;49.998;19.880;2024-02-26T19:04:57;5.50;1.00
18268;DHT22;9260;49.998;19.880;2024-02-26T19:15:02;5.50;1.00
18268;DHT22;9260;49.998;19.880;2024-02-26T19:25:06;6.40;1.00
18268;DHT22;9260;49.998;19.880;2024-02-26T19:35:12;5.80;1.00
18268;DHT22;9260;49.998;19.880;2024-02-26T19:45:16;6.30;1.00
18268;DHT22;9260;49.998;19.880;2024-02-26T19:55:21;6.10;1.00
18268;DHT22;9260;49.998;19.880;2024-02-26T20:05:25;6.60;1.00
18268;DHT22;9260;49.998;19.880;2024-02-26T20:15:30;3.20;1.00
18268;DHT22;9260;49.998;19.880;2024-02-26T20:25:33;6.90;1.00
18268;DHT22;9260;49.998;19.880;2024-02-26T20:35:38;6.10;1.00
18268;DHT22;9260;49.998;19.880;2024-02-26T20:45:41;6.00;1.00
18268;DHT22;9260;49.998;19.880;2024-02-26T20:55:52;5.90;1.00
18268;DHT22;9260;49.998;19.880;2024-02-26T21:05:55;5.90;1.00
18268;DHT22;9260;49.998;19.880;2024-02-26T21:16:00;5.60;1.00
18268;DHT22;9260;49.998;19.880;2024-02-26T21:26:03;6.40;1.00
18268;DHT22;9260;49.998;19.880;2024-02-26T21:36:08;5.10;1.00
18268;DHT22;9260;49.998;19.880;2024-02-26T21:46:12;4.80;1.00
18268;DHT22;9260;49.998;19.880;2024-02-26T21:56:16;3.60;1.00
18268;DHT22;9260;49.998;19.880;2024-02-26T22:06:20;3.80;1.00
18268;DHT22;9260;49.998;19.880;2024-02-26T22:16:24;3.70;1.00
18268;DHT22;9260;49.998;19.880;2024-02-26T22:26:28;3.50;1.00
18268;DHT22;9260;49.998;19.880;2024-02-26T22:36:32;3.80;1.00
18268;DHT22;9260;49.998;19.880;2024-02-26T22:46:39;3.10;1.00
18268;DHT22;9260;49.998;19.880;2024-02-26T22:56:43;2.90;1.00
18268;DHT22;9260;49.998;19.880;2024-02-26T23:06:46;2.40;1.00
18268;DHT22;9260;49.998;19.880;2024-02-26T23:16:51;2.50;1.00
18268;DHT22;9260;49.998;19.880;2024-02-26T23:26:54;2.20;1.00
18268;DHT22;9260;49.998;19.880;2024-02-26T23:36:59;2.40;1.00
18268;DHT22;9260;49.998;19.880;2024-02-26T23:47:02;1.90;1.00
18268;DHT22;9260;49.998;19.880;2024-02-26T23:57:07;2.30;1.00
